Time;durP1;ratioP1;P1;durP2;ratioP2;P2;SDS_P1;SDS_P2;PMS_P1;PMS_P2;Temp;Humidity;BMP_temperature;BMP_pressure;BME280_temperature;BME280_humidity;BME280_pressure;Samples;Min_cycle;Max_cycle;Signal;HPM_P1;HPM_P2
2024/01/14 00:01:29;;;;;;;7.90;7.10;;;16.90;53.40;;;;;;5134294;27;20176;-61
2024/01/14 00:03:55;;;;;;;8.00;6.97;;;16.80;53.40;;;;;;5133926;27;20172;-61
2024/01/14 00:06:21;;;;;;;11.38;7.80;;;16.80;53.50;;;;;;5120772;27;20181;-61
2024/01/14 00:08:46;;;;;;;10.35;7.03;;;16.80;53.60;;;;;;5114060;28;20542;-62
2024/01/14 00:11:12;;;;;;;7.65;5.75;;;16.80;53.60;;;;;;5113854;28;20181;-66
2024/01/14 00:13:37;;;;;;;8.85;7.03;;;16.80;53.40;;;;;;5112680;28;20173;-61
2024/01/14 00:16:03;;;;;;;9.55;6.93;;;16.70;53.60;;;;;;5112480;28;20539;-62
2024/01/14 00:18:29;;;;;;;8.85;6.38;;;16.70;53.60;;;;;;5113559;28;20217;-61
2024/01/14 00:20:54;;;;;;;8.90;6.68;;;16.60;53.60;;;;;;5113322;28;20161;-62
2024/01/14 00:23:20;;;;;;;9.65;6.60;;;16.60;53.70;;;;;;5113269;28;20173;-62
2024/01/14 00:25:45;;;;;;;7.85;6.55;;;16.60;53.70;;;;;;5114011;28;20165;-61
2024/01/14 00:28:12;;;;;;;9.38;6.80;;;16.60;53.70;;;;;;5113083;28;20169;-61
2024/01/14 00:30:37;;;;;;;7.43;6.32;;;16.60;53.50;;;;;;5113252;28;20191;-61
2024/01/14 00:33:03;;;;;;;8.45;6.13;;;16.50;53.60;;;;;;5113584;28;20628;-61
2024/01/14 00:35:28;;;;;;;6.60;5.88;;;16.50;53.50;;;;;;5112857;28;20178;-61
2024/01/14 00:37:54;;;;;;;8.10;6.70;;;16.50;53.50;;;;;;5113442;28;20208;-61
2024/01/14 00:40:20;;;;;;;7.78;6.10;;;16.50;53.50;;;;;;5111750;28;20177;-61
2024/01/14 00:42:45;;;;;;;7.30;6.38;;;16.50;53.40;;;;;;5113334;28;20530;-61
2024/01/14 00:45:11;;;;;;;6.32;5.72;;;16.50;53.50;;;;;;5112622;28;20654;-61
2024/01/14 00:47:36;;;;;;;7.72;6.38;;;16.40;53.50;;;;;;5112132;28;20187;-62
2024/01/14 00:50:02;;;;;;;7.82;6.80;;;16.40;53.60;;;;;;5113184;28;20169;-61
2024/01/14 00:52:27;;;;;;;7.00;6.32;;;16.40;53.60;;;;;;5112879;28;20181;-62
2024/01/14 00:54:53;;;;;;;8.48;6.45;;;16.40;53.40;;;;;;5112696;28;20165;-61
2024/01/14 00:57:18;;;;;;;7.78;6.43;;;16.40;53.40;;;;;;5112576;28;20295;-61
2024/01/14 00:59:44;;;;;;;8.05;6.13;;;16.40;53.40;;;;;;5112420;28;20261;-60
2024/01/14 01:02:09;;;;;;;6.85;5.95;;;16.40;53.40;;;;;;5111431;28;20303;-61
2024/01/14 01:04:35;;;;;;;6.53;5.93;;;16.30;53.30;;;;;;5111869;28;20176;-61
2024/01/14 01:07:00;;;;;;;6.07;5.47;;;16.30;53.40;;;;;;5093681;28;20165;-61
2024/01/14 01:09:26;;;;;;;6.40;5.80;;;16.30;53.40;;;;;;5090811;28;20165;-62
2024/01/14 01:11:51;;;;;;;6.82;6.20;;;16.30;53.40;;;;;;5091675;28;20170;-62
2024/01/14 01:14:17;;;;;;;6.57;5.60;;;16.30;53.50;;;;;;5091289;28;20170;-61
2024/01/14 01:16:42;;;;;;;6.00;5.43;;;16.30;53.30;;;;;;5090789;28;20700;-61
2024/01/14 01:19:08;;;;;;;7.50;6.07;;;16.30;53.20;;;;;;5091488;28;20223;-61
2024/01/14 01:21:33;;;;;;;7.40;5.53;;;16.30;53.30;;;;;;5091586;28;20208;-61
2024/01/14 01:23:59;;;;;;;5.85;5.25;;;16.30;53.40;;;;;;5091092;28;20177;-61
2024/01/14 01:26:24;;;;;;;6.00;5.50;;;16.20;53.60;;;;;;5091017;28;20177;-61
2024/01/14 01:28:50;;;;;;;5.95;5.45;;;16.20;53.20;;;;;;5091743;28;20170;-60
2024/01/14 01:31:16;;;;;;;6.32;5.82;;;16.20;53.20;;;;;;5090372;28;20548;-60
2024/01/14 01:33:41;;;;;;;6.72;5.72;;;16.20;53.20;;;;;;5091478;28;20226;-60
2024/01/14 01:36:07;;;;;;;5.95;5.32;;;16.20;53.40;;;;;;5091337;28;20166;-60
2024/01/14 01:38:33;;;;;;;6.43;5.75;;;16.20;53.40;;;;;;5090352;28;20278;-61
2024/01/14 01:40:58;;;;;;;6.03;5.53;;;16.20;53.20;;;;;;5091574;28;20178;-61
2024/01/14 01:43:24;;;;;;;5.97;5.32;;;16.20;53.00;;;;;;5091171;28;20676;-61
2024/01/14 01:45:49;;;;;;;6.35;5.53;;;16.10;53.20;;;;;;5090445;28;20650;-61
2024/01/14 01:48:15;;;;;;;5.95;5.45;;;16.10;53.20;;;;;;5073462;28;20235;-61
2024/01/14 01:50:41;;;;;;;5.43;4.93;;;16.10;53.10;;;;;;5090529;28;20180;-61
2024/01/14 01:53:07;;;;;;;6.40;5.78;;;16.10;53.00;;;;;;5091666;28;20181;-61
2024/01/14 01:55:32;;;;;;;6.13;5.60;;;16.10;53.00;;;;;;5091293;28;20181;-62
2024/01/14 01:57:58;;;;;;;6.40;5.80;;;16.10;53.00;;;;;;5072124;28;20229;-61
2024/01/14 02:00:23;;;;;;;5.95;5.28;;;16.10;53.00;;;;;;5090779;28;20170;-63
2024/01/14 02:02:49;;;;;;;5.72;5.18;;;16.10;53.00;;;;;;5091385;28;20169;-61
2024/01/14 02:05:14;;;;;;;6.25;5.70;;;16.00;53.00;;;;;;5055847;28;20162;-61
2024/01/14 02:07:40;;;;;;;6.47;5.78;;;16.00;53.00;;;;;;5072936;28;20678;-61
2024/01/14 02:10:06;;;;;;;5.78;5.28;;;16.00;53.00;;;;;;5090983;28;20170;-61
2024/01/14 02:12:31;;;;;;;6.72;5.75;;;16.00;53.00;;;;;;5071994;28;20181;-61
2024/01/14 02:14:57;;;;;;;6.68;6.07;;;16.00;53.00;;;;;;5091035;28;20212;-61
2024/01/14 02:17:22;;;;;;;6.85;6.25;;;16.00;52.90;;;;;;5090986;28;20205;-61
2024/01/14 02:19:48;;;;;;;5.70;5.20;;;16.00;53.00;;;;;;5090449;28;20166;-60
2024/01/14 02:22:19;;;;;;;6.20;5.70;;;16.00;52.90;;;;;;5091131;28;20174;-61
2024/01/14 02:24:45;;;;;;;6.20;5.57;;;16.00;53.00;;;;;;5090996;28;20173;-61
2024/01/14 02:27:10;;;;;;;6.45;5.85;;;15.90;52.90;;;;;;5090542;28;20178;-61
2024/01/14 02:29:37;;;;;;;6.35;5.75;;;15.90;52.90;;;;;;5090637;28;20176;-60
2024/01/14 02:32:03;;;;;;;6.72;5.88;;;15.90;53.30;;;;;;5091066;28;20188;-61
2024/01/14 02:34:29;;;;;;;6.43;5.82;;;15.90;52.90;;;;;;5090268;28;20174;-61
2024/01/14 02:36:54;;;;;;;5.85;5.28;;;15.90;52.90;;;;;;5090851;28;20720;-61
2024/01/14 02:39:20;;;;;;;6.43;5.80;;;15.90;53.00;;;;;;5092354;28;20720;-61
2024/01/14 02:41:45;;;;;;;6.82;6.22;;;15.90;52.90;;;;;;5093724;28;20234;-61
2024/01/14 02:44:11;;;;;;;6.32;5.72;;;15.90;52.80;;;;;;5094280;28;20174;-61
2024/01/14 02:46:38;;;;;;;6.38;5.78;;;15.90;52.90;;;;;;5094387;28;20693;-61
2024/01/14 02:49:03;;;;;;;6.78;6.10;;;15.80;52.80;;;;;;5093795;28;20234;-61
2024/01/14 02:51:29;;;;;;;6.32;5.72;;;15.80;52.80;;;;;;5093889;28;20640;-62
2024/01/14 02:53:54;;;;;;;6.93;6.22;;;15.80;52.90;;;;;;5093742;28;20169;-62
2024/01/14 02:56:20;;;;;;;7.75;6.60;;;15.80;52.90;;;;;;5093658;28;20173;-61
2024/01/14 02:58:45;;;;;;;6.82;6.13;;;15.80;52.90;;;;;;5086967;28;20226;-60
2024/01/14 03:01:11;;;;;;;7.13;6.43;;;15.80;53.00;;;;;;5094130;28;20257;-61
2024/01/14 03:03:37;;;;;;;7.38;6.15;;;15.80;52.90;;;;;;5085532;28;20261;-61
2024/01/14 03:06:03;;;;;;;7.28;6.00;;;15.80;52.90;;;;;;5074725;28;20179;-61
2024/01/14 03:08:29;;;;;;;7.50;6.70;;;15.80;53.00;;;;;;5073697;28;20170;-62
2024/01/14 03:10:54;;;;;;;7.10;6.50;;;15.80;52.90;;;;;;5074229;28;20181;-65
2024/01/14 03:13:19;;;;;;;7.03;6.30;;;15.70;52.90;;;;;;5073736;28;20181;-62
2024/01/14 03:15:45;;;;;;;7.32;6.63;;;15.80;53.00;;;;;;5081712;28;20196;-62
2024/01/14 03:18:15;;;;;;;7.22;6.35;;;15.80;53.00;;;;;;5093744;28;20617;-61
2024/01/14 03:20:41;;;;;;;7.60;6.18;;;15.70;53.00;;;;;;5094085;28;20182;-61
2024/01/14 03:23:07;;;;;;;7.60;6.80;;;15.70;52.90;;;;;;5094172;28;20226;-61
2024/01/14 03:25:33;;;;;;;6.95;6.32;;;15.70;53.00;;;;;;5094255;28;20595;-61
2024/01/14 03:27:58;;;;;;;7.25;6.43;;;15.70;53.00;;;;;;5094404;28;20201;-61
2024/01/14 03:30:24;;;;;;;6.97;6.28;;;15.70;53.00;;;;;;5093380;28;20264;-60
2024/01/14 03:32:49;;;;;;;7.65;6.88;;;15.70;53.10;;;;;;5094681;28;20181;-61
2024/01/14 03:35:15;;;;;;;7.30;6.63;;;15.60;53.00;;;;;;5094046;28;20166;-61
2024/01/14 03:37:40;;;;;;;7.70;6.65;;;15.60;53.00;;;;;;5093262;28;20201;-61
2024/01/14 03:40:07;;;;;;;7.78;7.07;;;15.60;53.00;;;;;;5093812;28;20166;-61
2024/01/14 03:42:32;;;;;;;7.30;6.65;;;15.70;53.10;;;;;;5093809;28;20198;-61
2024/01/14 03:45:01;;;;;;;7.93;7.13;;;15.60;53.00;;;;;;5093478;28;20637;-62
2024/01/14 03:47:27;;;;;;;7.97;7.28;;;15.60;53.10;;;;;;5093810;28;20173;-61
2024/01/14 03:49:52;;;;;;;8.13;7.32;;;15.60;53.00;;;;;;5094130;28;20177;-61
2024/01/14 03:52:17;;;;;;;6.63;6.03;;;15.60;53.10;;;;;;5084376;28;20220;-62
2024/01/14 03:54:43;;;;;;;8.02;7.28;;;15.60;53.00;;;;;;5073987;28;20232;-61
2024/01/14 03:57:09;;;;;;;8.50;7.40;;;15.60;53.00;;;;;;5073596;28;20606;-61
2024/01/14 03:59:34;;;;;;;8.30;7.43;;;15.60;53.10;;;;;;5091999;28;20802;-61
2024/01/14 04:02:00;;;;;;;8.52;7.50;;;15.60;53.00;;;;;;5093187;28;20177;-61
2024/01/14 04:04:26;;;;;;;8.73;7.63;;;15.60;53.00;;;;;;5092141;28;20184;-61
2024/01/14 04:06:51;;;;;;;8.35;7.38;;;15.60;53.10;;;;;;5093658;28;20533;-62
2024/01/14 04:09:17;;;;;;;8.40;7.60;;;15.60;53.10;;;;;;5093479;28;20182;-61
2024/01/14 04:11:42;;;;;;;7.22;6.43;;;15.60;53.10;;;;;;5092896;28;20269;-61
2024/01/14 04:14:08;;;;;;;8.90;8.00;;;15.60;53.10;;;;;;5093362;28;20260;-61
2024/01/14 04:16:37;;;;;;;8.20;7.45;;;15.50;53.10;;;;;;5092971;28;20642;-61
2024/01/14 04:19:03;;;;;;;8.60;7.70;;;15.50;53.10;;;;;;5092951;28;20189;-61
2024/01/14 04:21:28;;;;;;;8.05;7.30;;;15.50;53.10;;;;;;5093206;28;20180;-61
2024/01/14 04:23:54;;;;;;;8.45;7.60;;;15.50;53.10;;;;;;5093526;28;20174;-60
2024/01/14 04:26:20;;;;;;;8.00;7.20;;;15.50;53.20;;;;;;5092517;28;20174;-61
2024/01/14 04:28:46;;;;;;;8.48;7.68;;;15.50;53.20;;;;;;5093100;28;20221;-61
2024/01/14 04:31:12;;;;;;;8.77;7.20;;;15.40;53.20;;;;;;5093412;28;20178;-61
2024/01/14 04:33:37;;;;;;;8.50;7.65;;;15.40;53.10;;;;;;5092133;28;20620;-61
2024/01/14 04:36:04;;;;;;;8.55;7.65;;;15.40;53.20;;;;;;5093002;28;20174;-61
2024/01/14 04:38:29;;;;;;;9.40;7.63;;;15.40;53.20;;;;;;5092700;28;20213;-61
2024/01/14 04:40:55;;;;;;;8.45;7.65;;;15.40;53.20;;;;;;5092335;28;20181;-61
2024/01/14 04:43:21;;;;;;;8.40;7.50;;;15.40;53.10;;;;;;5092765;28;20182;-61
2024/01/14 04:45:46;;;;;;;8.57;7.78;;;15.40;53.20;;;;;;5093143;28;20189;-61
2024/01/14 04:48:12;;;;;;;7.72;7.03;;;15.40;53.20;;;;;;5091353;28;20169;-61
2024/01/14 04:50:39;;;;;;;9.02;8.07;;;15.40;53.30;;;;;;5102292;28;20666;-62
2024/01/14 04:53:05;;;;;;;8.32;7.53;;;15.40;53.20;;;;;;5113390;28;20180;-62
2024/01/14 04:55:31;;;;;;;8.82;7.63;;;15.40;53.30;;;;;;5112191;28;20177;-62
2024/01/14 04:57:57;;;;;;;8.38;7.55;;;15.40;53.20;;;;;;5113038;28;20230;-61
2024/01/14 05:00:22;;;;;;;9.60;8.60;;;15.40;53.20;;;;;;5112635;28;20165;-61
2024/01/14 05:02:49;;;;;;;8.48;7.70;;;15.40;53.20;;;;;;5111771;28;20201;-61
2024/01/14 05:05:14;;;;;;;9.48;8.38;;;15.40;53.30;;;;;;5113168;28;20268;-61
2024/01/14 05:07:40;;;;;;;8.48;7.57;;;15.40;53.20;;;;;;5112330;28;20187;-62
2024/01/14 05:10:09;;;;;;;9.63;8.38;;;15.40;53.40;;;;;;5112769;28;20173;-62
2024/01/14 05:12:35;;;;;;;10.52;8.50;;;15.40;53.30;;;;;;5112650;28;20177;-61
2024/01/14 05:15:00;;;;;;;9.10;8.10;;;15.40;53.40;;;;;;5112431;28;20260;-62
2024/01/14 05:17:26;;;;;;;9.23;8.32;;;15.30;53.20;;;;;;5112566;28;20296;-61
2024/01/14 05:19:51;;;;;;;9.25;8.35;;;15.30;53.30;;;;;;5113079;28;20165;-60
2024/01/14 05:22:17;;;;;;;9.20;7.88;;;15.30;53.30;;;;;;5111740;28;20176;-61
2024/01/14 05:24:43;;;;;;;9.40;8.15;;;15.30;53.40;;;;;;5112743;28;20177;-61
2024/01/14 05:27:13;;;;;;;8.48;7.65;;;15.30;53.40;;;;;;5112440;28;20264;-61
2024/01/14 05:29:42;;;;;;;10.05;9.05;;;15.30;53.40;;;;;;5111509;28;20538;-60
2024/01/14 05:32:12;;;;;;;10.40;8.82;;;15.30;53.30;;;;;;5109616;28;20208;-60
2024/01/14 05:34:37;;;;;;;10.13;8.43;;;15.30;53.40;;;;;;5101930;28;20264;-60
2024/01/14 05:37:03;;;;;;;9.23;8.23;;;15.30;53.30;;;;;;5111492;28;20291;-60
2024/01/14 05:39:30;;;;;;;10.15;9.15;;;15.20;53.30;;;;;;5095152;28;20649;-61
2024/01/14 05:41:55;;;;;;;9.18;8.27;;;15.20;53.30;;;;;;5092482;28;20178;-60
2024/01/14 05:44:21;;;;;;;9.50;8.18;;;15.20;53.30;;;;;;5091353;28;20227;-61
2024/01/14 05:46:46;;;;;;;9.85;8.50;;;15.20;53.30;;;;;;5092222;28;20584;-61
2024/01/14 05:49:12;;;;;;;9.18;8.27;;;15.20;53.30;;;;;;5092119;28;20633;-61
2024/01/14 05:51:38;;;;;;;10.07;8.52;;;15.20;53.30;;;;;;5108220;28;20571;-61
2024/01/14 05:54:04;;;;;;;8.55;7.75;;;15.20;53.30;;;;;;5112342;28;20173;-60
2024/01/14 05:56:30;;;;;;;10.85;9.05;;;15.20;53.30;;;;;;5111917;28;20218;-61
2024/01/14 05:58:55;;;;;;;9.40;8.48;;;15.20;53.40;;;;;;5111608;28;20253;-61
2024/01/14 06:01:21;;;;;;;10.32;9.27;;;15.20;53.30;;;;;;5111897;28;20282;-61
2024/01/14 06:03:46;;;;;;;9.40;8.50;;;15.10;53.30;;;;;;5112169;28;20640;-61
2024/01/14 06:06:12;;;;;;;9.73;8.80;;;15.20;53.40;;;;;;5111679;28;20168;-61
2024/01/14 06:08:37;;;;;;;9.38;8.38;;;15.20;53.30;;;;;;5112206;28;20679;-61
2024/01/14 06:11:04;;;;;;;8.95;8.05;;;15.20;53.40;;;;;;5111698;28;20180;-62
2024/01/14 06:13:30;;;;;;;10.38;8.90;;;15.10;53.30;;;;;;5112521;28;20243;-62
2024/01/14 06:15:55;;;;;;;9.25;8.23;;;15.10;53.90;;;;;;5116577;28;20213;-61
2024/01/14 06:18:21;;;;;;;9.88;8.90;;;15.10;53.30;;;;;;5115486;28;20273;-60
2024/01/14 06:20:47;;;;;;;10.18;8.75;;;15.10;53.20;;;;;;5116144;28;20658;-61
2024/01/14 06:23:13;;;;;;;9.13;8.23;;;15.00;53.20;;;;;;5116426;28;20177;-60
2024/01/14 06:25:39;;;;;;;10.40;8.93;;;15.10;53.30;;;;;;5115491;28;20180;-61
2024/01/14 06:28:05;;;;;;;9.60;8.65;;;15.10;53.30;;;;;;5116157;28;20169;-61
2024/01/14 06:30:31;;;;;;;9.63;8.65;;;15.10;53.30;;;;;;5115916;28;20226;-60
2024/01/14 06:32:56;;;;;;;10.18;8.48;;;15.10;53.40;;;;;;5115206;28;20185;-60
2024/01/14 06:35:22;;;;;;;9.70;8.75;;;15.10;53.30;;;;;;5115965;28;20165;-61
2024/01/14 06:37:47;;;;;;;9.02;8.13;;;15.10;53.30;;;;;;5116020;28;20597;-60
2024/01/14 06:40:13;;;;;;;9.82;8.75;;;15.00;53.30;;;;;;5115300;28;20530;-61
2024/01/14 06:42:39;;;;;;;8.70;7.80;;;15.00;53.40;;;;;;5115821;28;20263;-61
2024/01/14 06:45:06;;;;;;;9.18;8.25;;;15.00;53.40;;;;;;5115432;28;20169;-61
2024/01/14 06:47:31;;;;;;;10.20;9.07;;;15.00;53.40;;;;;;5114295;28;20215;-61
2024/01/14 06:49:57;;;;;;;8.75;7.90;;;15.00;53.30;;;;;;5115592;28;20177;-61
2024/01/14 06:52:22;;;;;;;8.93;8.10;;;15.10;53.40;;;;;;5115483;28;20196;-61
2024/01/14 06:54:51;;;;;;;8.90;8.00;;;15.10;53.30;;;;;;5115129;28;20713;-60
2024/01/14 06:57:17;;;;;;;9.05;8.18;;;15.20;53.40;;;;;;5114916;28;20205;-61
2024/01/14 06:59:43;;;;;;;8.98;8.07;;;15.30;53.40;;;;;;5115735;28;20177;-60
2024/01/14 07:02:08;;;;;;;8.35;7.50;;;15.30;53.20;;;;;;5113661;28;20176;-61
2024/01/14 07:04:34;;;;;;;7.82;7.10;;;15.40;53.10;;;;;;5114730;28;20173;-62
2024/01/14 07:06:59;;;;;;;7.90;7.10;;;15.60;53.00;;;;;;5115708;28;20188;-62
2024/01/14 07:09:25;;;;;;;7.75;6.95;;;15.70;52.90;;;;;;5114366;28;20169;-62
2024/01/14 07:11:50;;;;;;;6.90;6.20;;;15.90;52.60;;;;;;5115086;28;20184;-61
2024/01/14 07:14:16;;;;;;;7.63;6.90;;;16.10;52.40;;;;;;5113822;28;20485;-61
2024/01/14 07:16:41;;;;;;;8.25;7.40;;;16.20;52.20;;;;;;5114666;28;20640;-61
2024/01/14 07:19:07;;;;;;;7.25;6.55;;;16.20;52.10;;;;;;5114927;28;20176;-60
2024/01/14 07:21:33;;;;;;;7.50;6.80;;;16.30;52.60;;;;;;5114046;28;20188;-61
2024/01/14 07:23:58;;;;;;;7.68;6.90;;;16.40;51.80;;;;;;5114785;28;20180;-60
2024/01/14 07:26:25;;;;;;;7.53;6.72;;;16.40;51.70;;;;;;5114607;28;20591;-60
2024/01/14 07:28:54;;;;;;;7.38;6.68;;;16.50;51.80;;;;;;5113897;28;20169;-60
2024/01/14 07:31:22;;;;;;;7.65;6.68;;;16.50;51.60;;;;;;5114463;28;20184;-61
2024/01/14 07:33:50;;;;;;;6.97;6.25;;;16.60;51.60;;;;;;5115128;28;20177;-60
2024/01/14 07:36:15;;;;;;;6.90;6.30;;;16.60;51.60;;;;;;5113748;28;20173;-60
2024/01/14 07:38:41;;;;;;;6.57;5.88;;;16.60;51.50;;;;;;5114762;28;20250;-61
2024/01/14 07:41:06;;;;;;;6.85;6.15;;;16.60;51.50;;;;;;5113942;28;20165;-60
2024/01/14 07:43:32;;;;;;;7.00;6.30;;;16.60;51.50;;;;;;5113311;28;20218;-61
2024/01/14 07:45:58;;;;;;;6.72;5.90;;;16.70;51.50;;;;;;5114551;28;20169;-61
2024/01/14 07:48:26;;;;;;;6.85;6.15;;;16.70;51.50;;;;;;5114226;28;20176;-61
2024/01/14 07:50:54;;;;;;;6.97;6.28;;;16.70;51.50;;;;;;5113851;28;20213;-61
2024/01/14 07:53:19;;;;;;;6.75;6.05;;;16.70;51.50;;;;;;5114313;28;20180;-61
2024/01/14 07:55:45;;;;;;;6.50;5.90;;;16.70;51.50;;;;;;5114498;28;20169;-60
2024/01/14 07:58:11;;;;;;;6.88;6.28;;;16.70;51.50;;;;;;5113291;28;20699;-60
2024/01/14 08:00:38;;;;;;;7.72;6.40;;;16.70;51.50;;;;;;5113891;28;20261;-60
2024/01/14 08:03:04;;;;;;;7.25;6.55;;;16.70;51.50;;;;;;5113967;28;20185;-60
2024/01/14 08:05:29;;;;;;;6.82;6.05;;;16.80;51.50;;;;;;5113037;28;20169;-61
2024/01/14 08:07:55;;;;;;;7.15;6.47;;;16.80;51.50;;;;;;5113848;28;20267;-61
2024/01/14 08:10:21;;;;;;;7.10;6.40;;;16.70;51.50;;;;;;5113878;28;20295;-65
2024/01/14 08:12:46;;;;;;;6.82;6.22;;;16.80;51.50;;;;;;5113389;28;20180;-60
2024/01/14 08:15:12;;;;;;;6.72;6.13;;;16.80;51.60;;;;;;5114020;28;20177;-60
2024/01/14 08:17:37;;;;;;;7.05;6.35;;;16.80;51.70;;;;;;5112785;28;20209;-60
2024/01/14 08:20:05;;;;;;;6.25;5.65;;;16.80;51.70;;;;;;5113942;28;20183;-60
2024/01/14 08:22:31;;;;;;;7.43;6.63;;;16.80;51.80;;;;;;5113415;28;20636;-60
2024/01/14 08:24:56;;;;;;;7.90;6.70;;;16.80;51.90;;;;;;5113402;28;20180;-60
2024/01/14 08:27:22;;;;;;;8.77;6.85;;;16.80;51.90;;;;;;5102640;28;20177;-60
2024/01/14 08:29:47;;;;;;;12.05;6.57;;;16.80;52.00;;;;;;5093627;28;20175;-59
2024/01/14 08:32:13;;;;;;;8.30;6.32;;;16.80;52.20;;;;;;5092812;28;20655;-60
2024/01/14 08:34:38;;;;;;;9.80;7.10;;;16.90;52.30;;;;;;5093191;28;20569;-60
2024/01/14 08:37:04;;;;;;;6.80;5.97;;;17.00;52.30;;;;;;5092338;28;20229;-60
2024/01/14 08:39:29;;;;;;;9.30;6.30;;;17.10;52.30;;;;;;5092196;28;20173;-60
2024/01/14 08:41:55;;;;;;;7.68;6.30;;;17.20;52.10;;;;;;5093264;28;20564;-60
2024/01/14 08:44:20;;;;;;;8.50;6.30;;;17.40;52.10;;;;;;5092845;28;20198;-59
2024/01/14 08:46:48;;;;;;;9.05;6.15;;;17.50;51.70;;;;;;5092617;28;20204;-60
2024/01/14 08:49:14;;;;;;;7.72;6.03;;;17.60;51.60;;;;;;5093242;28;20177;-59
2024/01/14 08:51:40;;;;;;;6.65;5.95;;;17.70;51.60;;;;;;5092969;28;20188;-60
2024/01/14 08:54:06;;;;;;;6.50;5.88;;;17.70;51.50;;;;;;5092133;28;20177;-60
2024/01/14 08:56:31;;;;;;;5.97;5.30;;;17.70;51.60;;;;;;5092599;28;20185;-60
2024/01/14 08:58:57;;;;;;;7.22;6.00;;;17.60;51.60;;;;;;5092721;28;20296;-60
2024/01/14 09:01:23;;;;;;;6.30;5.70;;;17.70;51.60;;;;;;5091808;28;20539;-59
2024/01/14 09:03:49;;;;;;;6.57;5.97;;;17.80;51.60;;;;;;5093158;28;20636;-60
2024/01/14 09:06:15;;;;;;;7.10;5.80;;;17.70;51.70;;;;;;5092702;28;20169;-61
2024/01/14 09:08:40;;;;;;;7.20;5.88;;;17.80;51.70;;;;;;5092319;28;20177;-60
2024/01/14 09:11:07;;;;;;;6.05;5.47;;;17.80;51.70;;;;;;5092733;28;20543;-60
2024/01/14 09:13:32;;;;;;;6.63;5.93;;;17.80;51.60;;;;;;5092550;28;20260;-60
2024/01/14 09:15:58;;;;;;;7.32;6.57;;;17.80;51.60;;;;;;5091759;28;20304;-60
2024/01/14 09:18:23;;;;;;;9.20;5.25;;;17.80;51.60;;;;;;5092366;28;20292;-60
2024/01/14 09:20:49;;;;;;;6.70;5.82;;;17.80;51.70;;;;;;5092042;28;20574;-60
2024/01/14 09:23:15;;;;;;;6.47;5.88;;;17.80;51.70;;;;;;5092120;28;20660;-60
2024/01/14 09:25:40;;;;;;;6.95;5.90;;;17.80;51.60;;;;;;5091893;28;20199;-60
2024/01/14 09:28:06;;;;;;;6.53;5.93;;;17.80;51.60;;;;;;5108191;28;20292;-59
2024/01/14 09:30:31;;;;;;;6.63;5.97;;;17.90;51.70;;;;;;5112241;28;20253;-59
2024/01/14 09:32:57;;;;;;;6.25;5.60;;;17.90;51.60;;;;;;5112834;28;20188;-59
2024/01/14 09:35:23;;;;;;;7.75;6.20;;;17.90;51.50;;;;;;5111629;28;20177;-60
2024/01/14 09:37:48;;;;;;;7.30;6.60;;;17.90;51.50;;;;;;5112492;28;20201;-60
2024/01/14 09:40:17;;;;;;;6.90;5.80;;;18.00;51.60;;;;;;5112340;28;20254;-59
2024/01/14 09:42:44;;;;;;;7.45;6.68;;;18.00;51.50;;;;;;5112102;28;20169;-60
2024/01/14 09:45:10;;;;;;;7.28;6.30;;;18.00;51.50;;;;;;5112344;28;20173;-59
2024/01/14 09:47:35;;;;;;;6.65;5.95;;;17.90;51.50;;;;;;5112361;28;20623;-61
2024/01/14 09:50:01;;;;;;;6.10;5.60;;;18.00;51.60;;;;;;5093547;28;20176;-60
2024/01/14 09:52:27;;;;;;;6.82;6.22;;;18.00;51.50;;;;;;5112329;28;20177;-60
2024/01/14 09:54:53;;;;;;;6.32;5.72;;;18.00;51.50;;;;;;5112486;28;20177;-59
2024/01/14 09:57:20;;;;;;;7.32;6.18;;;18.00;51.40;;;;;;5111035;28;20614;-59
2024/01/14 09:59:46;;;;;;;6.18;5.60;;;18.00;51.40;;;;;;5112341;28;20187;-59
2024/01/14 10:02:12;;;;;;;6.78;5.88;;;18.10;51.40;;;;;;5094310;28;20602;-59
2024/01/14 10:04:40;;;;;;;6.78;6.18;;;18.10;51.40;;;;;;5093212;28;20256;-59
2024/01/14 10:07:06;;;;;;;7.00;6.30;;;18.10;51.40;;;;;;5112626;28;20248;-59
2024/01/14 10:09:32;;;;;;;6.65;6.00;;;18.00;51.40;;;;;;5093951;28;20169;-60
2024/01/14 10:11:57;;;;;;;6.82;6.22;;;18.10;51.50;;;;;;5111816;28;20173;-59
2024/01/14 10:14:26;;;;;;;6.68;6.07;;;18.10;51.50;;;;;;5093982;28;20256;-60
2024/01/14 10:16:56;;;;;;;7.18;6.53;;;18.20;51.50;;;;;;5112246;28;20213;-60
2024/01/14 10:19:22;;;;;;;6.72;6.00;;;18.20;51.40;;;;;;5111384;28;20218;-59
2024/01/14 10:21:48;;;;;;;6.85;6.15;;;18.20;51.30;;;;;;5112167;28;20535;-60
2024/01/14 10:24:13;;;;;;;6.10;5.57;;;18.30;51.40;;;;;;5111449;28;20741;-59
2024/01/14 10:26:40;;;;;;;6.43;5.82;;;18.30;51.40;;;;;;5089045;28;20166;-60
2024/01/14 10:29:07;;;;;;;6.65;6.05;;;18.30;51.30;;;;;;5073608;28;20200;-60
2024/01/14 10:31:33;;;;;;;6.70;6.10;;;18.30;51.30;;;;;;5090575;28;20518;-60
2024/01/14 10:34:00;;;;;;;6.45;5.85;;;18.20;51.30;;;;;;5091707;28;20692;-59
2024/01/14 10:36:28;;;;;;;6.22;5.63;;;18.20;51.30;;;;;;5091368;28;20652;-60
2024/01/14 10:38:59;;;;;;;7.13;6.40;;;18.20;51.30;;;;;;5091239;28;20270;-59
2024/01/14 10:41:24;;;;;;;7.30;6.60;;;18.30;51.20;;;;;;5073796;28;20208;-60
2024/01/14 10:43:50;;;;;;;6.43;5.90;;;18.40;51.10;;;;;;5091785;28;20205;-60
2024/01/14 10:46:16;;;;;;;6.90;6.28;;;18.30;51.10;;;;;;5090708;28;20244;-60
2024/01/14 10:48:41;;;;;;;6.43;5.82;;;18.40;51.20;;;;;;5073737;28;20185;-59
2024/01/14 10:51:09;;;;;;;6.93;6.28;;;18.40;51.20;;;;;;5091590;28;20174;-61
2024/01/14 10:53:53;;;;;;;6.68;6.07;;;18.40;51.10;;;;;;5072826;28;20177;-60
2024/01/14 10:56:20;;;;;;;7.35;6.15;;;18.40;51.10;;;;;;5058183;28;20182;-60
2024/01/14 10:58:46;;;;;;;7.22;6.53;;;18.40;51.10;;;;;;5073229;28;20263;-59
2024/01/14 11:01:13;;;;;;;6.43;5.88;;;18.40;51.20;;;;;;5076264;28;20189;-60
2024/01/14 11:03:39;;;;;;;7.65;6.30;;;18.50;51.10;;;;;;5095095;28;20174;-59
2024/01/14 11:06:05;;;;;;;6.63;5.93;;;18.40;51.10;;;;;;5077128;28;20176;-62
2024/01/14 11:08:30;;;;;;;6.35;5.75;;;18.50;51.10;;;;;;5076362;28;20174;-60
2024/01/14 11:10:56;;;;;;;6.85;6.25;;;18.40;51.10;;;;;;5094781;28;20182;-60
2024/01/14 11:13:31;;;;;;;6.32;5.53;;;18.40;51.30;;;;;;5094029;28;20181;-61
2024/01/14 11:16:03;;;;;;;6.32;5.72;;;18.30;51.40;;;;;;5076979;28;20246;-60
2024/01/14 11:18:45;;;;;;;6.38;5.78;;;18.30;51.50;;;;;;5076342;28;20714;-60
2024/01/14 11:21:23;;;;;;;6.55;5.95;;;18.40;51.40;;;;;;5077845;28;20181;-60
2024/01/14 11:23:49;;;;;;;6.70;6.10;;;18.50;51.40;;;;;;5076676;28;20204;-60
2024/01/14 11:26:14;;;;;;;7.00;6.07;;;18.50;51.20;;;;;;5094374;28;20255;-59
2024/01/14 11:28:44;;;;;;;7.20;6.07;;;18.50;51.40;;;;;;5092753;28;20166;-59
2024/01/14 11:31:10;;;;;;;8.02;6.95;;;18.60;51.30;;;;;;5094344;28;20645;-60
2024/01/14 11:33:40;;;;;;;7.68;6.88;;;18.60;51.30;;;;;;5094200;28;20173;-65
2024/01/14 11:36:07;;;;;;;8.30;6.82;;;18.60;51.50;;;;;;5094015;28;20177;-64
2024/01/14 11:38:34;;;;;;;9.80;8.00;;;18.70;51.30;;;;;;5093828;28;20213;-65
2024/01/14 11:41:26;;;;;;;12.30;6.93;;;18.60;51.40;;;;;;5094627;28;20444;-66
2024/01/14 11:44:12;;;;;;;10.02;7.75;;;18.60;51.30;;;;;;5077157;28;20645;-63
2024/01/14 11:46:47;;;;;;;9.52;8.50;;;18.60;51.30;;;;;;5075318;28;20702;-63
2024/01/14 11:49:26;;;;;;;11.30;8.68;;;18.60;51.30;;;;;;5093244;28;20173;-65
2024/01/14 11:51:57;;;;;;;9.25;7.68;;;18.60;51.30;;;;;;5077156;28;20328;-68
2024/01/14 11:54:23;;;;;;;8.95;7.28;;;18.60;51.60;;;;;;5093980;28;20197;-66
2024/01/14 11:56:49;;;;;;;11.13;7.82;;;18.60;51.80;;;;;;5093418;28;20209;-66
2024/01/14 11:59:14;;;;;;;10.35;7.65;;;18.60;51.90;;;;;;5093620;28;20225;-67
2024/01/14 12:01:40;;;;;;;9.30;7.50;;;18.60;52.00;;;;;;5094139;28;20170;-66
2024/01/14 12:04:10;;;;;;;10.20;6.90;;;18.50;52.10;;;;;;5093703;28;20235;-66
2024/01/14 12:06:43;;;;;;;8.95;7.78;;;18.40;52.20;;;;;;5093425;28;20178;-66
2024/01/14 12:09:09;;;;;;;9.90;7.13;;;18.30;52.30;;;;;;5093421;28;20186;-67
2024/01/14 12:11:35;;;;;;;9.18;7.40;;;18.30;52.50;;;;;;5091315;28;20174;-67
2024/01/14 12:14:01;;;;;;;11.13;8.45;;;18.30;52.60;;;;;;5093448;28;20205;-67
2024/01/14 12:16:26;;;;;;;8.50;7.50;;;18.20;52.60;;;;;;5093051;28;20625;-66
2024/01/14 12:18:52;;;;;;;9.65;7.55;;;18.20;52.70;;;;;;5092643;28;20672;-67
2024/01/14 12:21:18;;;;;;;7.47;6.78;;;18.20;52.80;;;;;;5093159;28;20169;-66
2024/01/14 12:23:45;;;;;;;7.55;6.85;;;18.20;52.80;;;;;;5074581;28;20257;-64
2024/01/14 12:26:10;;;;;;;8.43;7.53;;;18.20;52.80;;;;;;5075779;28;20176;-63
2024/01/14 12:28:37;;;;;;;9.80;7.75;;;18.10;52.70;;;;;;5106276;28;20547;-63
2024/01/14 12:31:04;;;;;;;11.70;8.75;;;18.00;52.60;;;;;;5095616;28;20185;-62
2024/01/14 12:33:30;;;;;;;11.45;8.88;;;18.00;52.80;;;;;;5111909;28;20201;-64
2024/01/14 12:35:55;;;;;;;9.40;8.38;;;17.90;52.70;;;;;;5094056;28;20196;-64
2024/01/14 12:38:21;;;;;;;10.73;8.45;;;17.80;52.70;;;;;;5092983;28;20629;-64
2024/01/14 12:40:46;;;;;;;9.73;8.63;;;17.80;52.70;;;;;;5093915;28;20687;-64